Time;durP1;ratioP1;P1;durP2;ratioP2;P2;SDS_P1;SDS_P2;PMS_P1;PMS_P2;Temp;Humidity;BMP_temperature;BMP_pressure;BME280_temperature;BME280_humidity;BME280_pressure;Samples;Min_cycle;Max_cycle;Signal;HPM_P1;HPM_P2
2024/03/13 00:01:02;;;;;;;2.35;1.75;;;8.20;99.90;;;;;;5078863;28;20205;-83
2024/03/13 00:03:32;;;;;;;0.88;0.88;;;8.10;99.90;;;;;;5078188;28;20215;-81
2024/03/13 00:05:58;;;;;;;0.57;0.55;;;8.10;99.90;;;;;;5078837;28;20665;-83
2024/03/13 00:08:27;;;;;;;1.10;1.00;;;8.20;99.90;;;;;;5078443;28;20224;-82
2024/03/13 00:10:53;;;;;;;3.45;2.47;;;8.20;99.90;;;;;;5082355;28;20233;-82
2024/03/13 00:13:22;;;;;;;0.50;0.40;;;8.20;99.90;;;;;;5081929;28;20201;-83
2024/03/13 00:15:50;;;;;;;0.50;0.50;;;8.20;99.90;;;;;;5082662;28;20205;-83
2024/03/13 00:18:16;;;;;;;0.57;0.57;;;8.20;99.90;;;;;;5082738;28;20237;-83
2024/03/13 00:20:44;;;;;;;0.50;0.40;;;8.10;99.90;;;;;;5082306;28;20201;-82
2024/03/13 00:23:15;;;;;;;3.10;3.00;;;8.20;99.90;;;;;;5080854;28;20248;-82
2024/03/13 00:25:45;;;;;;;0.93;0.93;;;8.20;99.90;;;;;;5082360;28;20542;-82
2024/03/13 00:28:12;;;;;;;0.97;0.97;;;8.20;99.90;;;;;;5082858;28;20225;-82
2024/03/13 00:30:40;;;;;;;7.10;3.95;;;8.20;99.90;;;;;;5082563;28;20436;-83
2024/03/13 00:33:08;;;;;;;2.97;2.45;;;8.20;99.90;;;;;;5081641;28;20708;-83
2024/03/13 00:35:36;;;;;;;0.50;0.50;;;8.30;99.90;;;;;;5081841;28;20198;-82
2024/03/13 00:38:03;;;;;;;1.25;1.25;;;8.20;99.90;;;;;;5083146;28;20214;-83
2024/03/13 00:40:30;;;;;;;0.93;0.93;;;8.10;99.90;;;;;;5082400;28;20221;-82
2024/03/13 00:42:58;;;;;;;2.15;1.27;;;8.10;99.90;;;;;;5081226;28;20221;-82
2024/03/13 00:45:25;;;;;;;1.92;1.60;;;8.10;99.90;;;;;;5082748;28;20199;-82
2024/03/13 00:47:54;;;;;;;2.53;2.42;;;8.00;99.90;;;;;;5081335;28;20214;-82
2024/03/13 00:50:22;;;;;;;1.73;1.63;;;8.00;99.90;;;;;;5082174;28;20218;-82
2024/03/13 00:52:50;;;;;;;6.22;3.60;;;8.00;99.90;;;;;;5081971;28;20252;-82
2024/03/13 00:55:18;;;;;;;8.70;5.13;;;8.10;99.90;;;;;;5082297;28;20580;-82
2024/03/13 00:57:46;;;;;;;2.97;1.73;;;8.10;99.90;;;;;;5082140;28;20222;-82
2024/03/13 01:00:21;;;;;;;1.25;0.88;;;8.10;99.90;;;;;;5082119;28;20257;-83
2024/03/13 01:02:48;;;;;;;0.50;0.40;;;8.10;99.90;;;;;;5081302;28;20214;-82
2024/03/13 01:05:16;;;;;;;2.55;2.28;;;8.10;99.90;;;;;;5082174;28;20199;-82
2024/03/13 01:07:45;;;;;;;1.50;1.40;;;8.10;99.90;;;;;;5082261;28;20217;-82
2024/03/13 01:10:12;;;;;;;3.42;3.05;;;8.20;99.90;;;;;;5081655;28;20197;-82
2024/03/13 01:12:40;;;;;;;0.65;0.65;;;8.20;99.90;;;;;;5081845;28;20821;-82
2024/03/13 01:15:09;;;;;;;1.37;1.23;;;8.30;99.90;;;;;;5082215;28;20210;-82
2024/03/13 01:17:40;;;;;;;2.35;0.95;;;8.20;99.90;;;;;;5080457;28;20472;-82
2024/03/13 01:20:09;;;;;;;2.15;1.88;;;8.20;99.90;;;;;;5081528;28;20198;-82
2024/03/13 01:22:39;;;;;;;2.80;2.15;;;8.20;99.90;;;;;;5081635;28;20301;-83
2024/03/13 01:25:07;;;;;;;1.75;1.65;;;8.20;99.90;;;;;;5081924;28;20228;-83
2024/03/13 01:27:34;;;;;;;2.40;2.22;;;8.10;99.90;;;;;;5081833;28;20643;-82
2024/03/13 01:30:01;;;;;;;3.35;2.22;;;8.00;99.90;;;;;;5082855;28;20198;-83
2024/03/13 01:32:28;;;;;;;0.70;0.70;;;8.00;99.90;;;;;;5081991;28;20205;-83
2024/03/13 01:34:56;;;;;;;2.15;1.05;;;7.90;99.90;;;;;;5081603;28;20202;-82
2024/03/13 01:40:16;;;;;;;3.95;2.08;;;7.90;99.90;;;;;;5081514;28;20197;-82
2024/03/13 01:57:13;;;;;;;1.83;0.80;;;7.80;99.90;;;;;;5081220;28;20251;-82
2024/03/13 01:59:49;;;;;;;2.92;2.03;;;7.80;99.90;;;;;;5081972;28;20222;-82
2024/03/13 02:02:22;;;;;;;1.95;1.02;;;7.80;99.90;;;;;;5080456;28;20691;-83
2024/03/13 02:04:51;;;;;;;3.95;1.92;;;7.80;99.90;;;;;;5081533;28;20198;-82
2024/03/13 02:07:21;;;;;;;0.70;0.68;;;7.80;99.90;;;;;;5082007;28;20218;-82
2024/03/13 02:09:52;;;;;;;1.13;1.05;;;7.80;99.90;;;;;;5082052;28;20233;-82
2024/03/13 02:12:19;;;;;;;0.80;0.80;;;7.80;99.90;;;;;;5081827;28;20194;-83
2024/03/13 02:14:45;;;;;;;1.90;1.83;;;7.70;99.90;;;;;;5080559;28;20191;-82
2024/03/13 02:17:12;;;;;;;1.73;1.00;;;7.70;99.90;;;;;;5080628;28;20214;-83
2024/03/13 02:19:41;;;;;;;1.77;1.50;;;7.70;99.90;;;;;;5081364;28;20678;-82
2024/03/13 02:22:08;;;;;;;0.57;0.57;;;7.70;99.90;;;;;;5080373;28;20248;-83
2024/03/13 02:24:35;;;;;;;0.40;0.40;;;7.70;99.90;;;;;;5080365;28;20216;-83
2024/03/13 02:27:02;;;;;;;2.80;2.15;;;7.80;99.90;;;;;;5064047;28;20202;-82
2024/03/13 02:29:31;;;;;;;0.85;0.85;;;7.70;99.90;;;;;;5063133;28;20210;-82
2024/03/13 02:31:58;;;;;;;2.90;1.63;;;7.70;99.90;;;;;;5062919;28;20220;-82
2024/03/13 02:34:25;;;;;;;3.67;1.85;;;7.70;99.90;;;;;;5063357;28;20197;-82
2024/03/13 02:36:54;;;;;;;2.30;1.48;;;7.70;99.90;;;;;;5063090;28;20191;-83
2024/03/13 02:39:23;;;;;;;0.82;0.82;;;7.70;99.90;;;;;;5064219;28;20281;-82
2024/03/13 02:41:49;;;;;;;2.00;1.90;;;7.80;99.90;;;;;;5062970;28;20281;-82
2024/03/13 02:44:17;;;;;;;0.40;0.40;;;7.80;99.90;;;;;;5063738;28;20229;-83
2024/03/13 02:46:44;;;;;;;0.40;0.40;;;7.80;99.90;;;;;;5064312;28;20194;-82
2024/03/13 02:49:11;;;;;;;1.67;1.13;;;7.80;99.90;;;;;;5063726;28;20206;-82
2024/03/13 02:51:38;;;;;;;1.30;1.30;;;7.80;99.90;;;;;;5063345;28;20198;-82
2024/03/13 02:54:05;;;;;;;1.40;1.40;;;7.80;99.90;;;;;;5046108;28;20197;-82
2024/03/13 02:56:32;;;;;;;6.47;2.65;;;7.80;99.90;;;;;;5063267;28;20198;-82
2024/03/13 02:58:59;;;;;;;3.55;3.25;;;7.80;99.90;;;;;;5062691;28;20799;-82
2024/03/13 03:01:27;;;;;;;0.75;0.75;;;7.80;99.90;;;;;;5063088;28;20201;-82
2024/03/13 03:03:53;;;;;;;1.75;1.63;;;7.80;99.90;;;;;;5063005;28;20325;-82
2024/03/13 03:06:20;;;;;;;4.40;1.90;;;7.80;99.90;;;;;;5063754;28;20198;-82
2024/03/13 03:08:47;;;;;;;0.43;0.43;;;7.80;99.90;;;;;;5062875;28;20226;-82
2024/03/13 03:11:16;;;;;;;2.58;2.08;;;7.90;99.90;;;;;;5075905;28;20186;-80
2024/03/13 03:13:44;;;;;;;1.45;1.35;;;8.00;99.90;;;;;;5081089;28;20178;-79
2024/03/13 03:16:11;;;;;;;3.38;2.08;;;7.90;99.90;;;;;;5080991;28;20204;-79
2024/03/13 03:18:38;;;;;;;1.63;1.40;;;8.00;99.90;;;;;;5079128;28;20233;-81
2024/03/13 03:21:08;;;;;;;4.55;2.78;;;8.00;99.90;;;;;;5061300;28;20202;-80
2024/03/13 03:23:35;;;;;;;0.85;0.85;;;8.00;99.90;;;;;;5055096;28;20226;-81
2024/03/13 03:26:01;;;;;;;0.57;0.50;;;8.00;99.90;;;;;;5055319;28;20195;-81
2024/03/13 03:28:29;;;;;;;0.95;0.95;;;8.00;99.90;;;;;;5055029;28;20227;-81
2024/03/13 03:30:56;;;;;;;1.35;1.25;;;8.00;99.90;;;;;;5054937;28;20195;-81
2024/03/13 03:33:23;;;;;;;2.25;0.80;;;8.00;99.90;;;;;;5054648;28;20194;-81
2024/03/13 03:35:50;;;;;;;2.00;1.35;;;8.00;99.90;;;;;;5054539;28;20194;-82
2024/03/13 03:38:17;;;;;;;0.73;0.73;;;8.00;99.90;;;;;;5055615;28;20214;-81
2024/03/13 03:40:45;;;;;;;1.67;1.58;;;8.00;99.90;;;;;;5055273;28;20197;-81
2024/03/13 03:43:11;;;;;;;0.80;0.80;;;8.00;99.90;;;;;;5054259;28;20194;-81
2024/03/13 03:45:38;;;;;;;1.63;1.52;;;8.10;99.90;;;;;;5054230;28;20703;-81
2024/03/13 03:48:08;;;;;;;1.30;1.15;;;8.10;99.90;;;;;;5054467;28;20210;-82
2024/03/13 03:50:35;;;;;;;2.22;2.08;;;8.00;99.90;;;;;;5054747;28;20760;-82
2024/03/13 03:53:02;;;;;;;0.40;0.40;;;7.90;99.90;;;;;;5054995;28;20198;-81
2024/03/13 03:55:29;;;;;;;0.50;0.50;;;7.90;99.90;;;;;;5061845;28;20206;-82
2024/03/13 03:57:56;;;;;;;1.30;1.30;;;8.00;99.90;;;;;;5060971;28;20215;-82
2024/03/13 04:00:24;;;;;;;2.60;1.25;;;8.00;99.90;;;;;;5060798;28;20286;-83
2024/03/13 04:02:51;;;;;;;2.75;1.55;;;8.00;99.90;;;;;;5061000;28;20208;-82
2024/03/13 04:05:19;;;;;;;2.30;1.30;;;8.00;99.90;;;;;;5061097;28;20640;-83
2024/03/13 04:07:48;;;;;;;1.08;1.02;;;8.00;99.90;;;;;;5061000;28;20305;-82
2024/03/13 04:10:15;;;;;;;1.70;1.45;;;8.10;99.90;;;;;;5061323;28;20222;-81
2024/03/13 04:12:42;;;;;;;0.70;0.57;;;8.10;99.90;;;;;;5062204;28;20201;-83
2024/03/13 04:15:12;;;;;;;2.85;1.35;;;8.10;99.90;;;;;;5062622;28;20194;-82
2024/03/13 04:17:40;;;;;;;0.95;0.93;;;8.10;99.90;;;;;;5062298;28;20597;-82
2024/03/13 04:20:12;;;;;;;4.13;1.98;;;8.10;99.90;;;;;;5060317;28;20218;-82
2024/03/13 04:22:40;;;;;;;0.40;0.40;;;8.10;99.90;;;;;;5060473;28;20480;-83
2024/03/13 04:25:07;;;;;;;0.60;0.57;;;8.10;99.90;;;;;;5059929;28;20248;-82
2024/03/13 04:27:34;;;;;;;3.40;2.65;;;8.10;99.90;;;;;;5060139;28;20230;-81
2024/03/13 04:30:02;;;;;;;0.55;0.55;;;8.10;99.90;;;;;;5043974;28;20190;-82
2024/03/13 04:32:29;;;;;;;0.40;0.30;;;8.10;99.90;;;;;;5060098;28;20198;-83
2024/03/13 04:34:57;;;;;;;1.88;1.77;;;8.10;99.90;;;;;;5060307;28;20194;-83
2024/03/13 04:37:24;;;;;;;0.63;0.63;;;8.10;99.90;;;;;;5060830;28;20218;-82
2024/03/13 04:39:51;;;;;;;1.73;1.58;;;8.10;99.90;;;;;;5059957;28;20198;-81
2024/03/13 04:42:18;;;;;;;1.20;1.10;;;8.20;99.90;;;;;;5060366;28;20205;-81
2024/03/13 04:44:45;;;;;;;0.77;0.70;;;8.10;99.90;;;;;;5060692;28;20741;-82
2024/03/13 04:47:13;;;;;;;1.98;1.35;;;8.20;99.90;;;;;;5060949;28;20214;-81
2024/03/13 04:49:41;;;;;;;0.40;0.40;;;8.10;99.90;;;;;;5057920;28;20191;-83
2024/03/13 04:52:08;;;;;;;0.40;0.40;;;8.10;99.90;;;;;;5058973;28;20195;-83
2024/03/13 04:54:35;;;;;;;2.35;1.25;;;8.20;99.90;;;;;;5058615;28;20252;-81
2024/03/13 04:57:03;;;;;;;0.50;0.50;;;8.20;99.90;;;;;;5062087;28;20195;-79
2024/03/13 04:59:30;;;;;;;0.77;0.75;;;8.20;99.90;;;;;;5061011;28;20245;-80
2024/03/13 05:01:56;;;;;;;0.40;0.40;;;8.20;99.90;;;;;;5062275;28;20277;-81
2024/03/13 05:04:23;;;;;;;2.05;1.10;;;8.20;99.90;;;;;;5062805;28;20226;-83
2024/03/13 05:06:56;;;;;;;1.35;0.60;;;8.20;99.90;;;;;;5062197;28;20225;-83
2024/03/13 05:09:23;;;;;;;1.85;1.55;;;8.30;99.90;;;;;;5062574;28;20757;-82
2024/03/13 05:11:50;;;;;;;2.10;1.33;;;8.20;99.90;;;;;;5062688;28;20199;-83
2024/03/13 05:14:17;;;;;;;1.40;1.30;;;8.20;99.90;;;;;;5063447;28;20365;-83
2024/03/13 05:16:45;;;;;;;3.70;1.55;;;8.20;99.90;;;;;;5065284;28;20221;-81
2024/03/13 05:19:13;;;;;;;2.35;0.95;;;8.30;99.90;;;;;;5066884;28;20194;-83
2024/03/13 05:21:39;;;;;;;3.15;1.90;;;8.30;99.90;;;;;;5049319;28;20225;-82
2024/03/13 05:24:06;;;;;;;3.92;3.17;;;8.30;99.90;;;;;;5065182;28;20213;-83
2024/03/13 05:26:35;;;;;;;1.23;1.13;;;8.30;99.90;;;;;;5065157;28;20416;-83
2024/03/13 05:29:02;;;;;;;1.42;1.33;;;8.20;99.90;;;;;;5065910;28;20218;-82
2024/03/13 05:31:29;;;;;;;1.33;1.27;;;8.20;99.90;;;;;;5065513;28;20261;-83
2024/03/13 05:33:57;;;;;;;1.35;0.93;;;8.30;99.90;;;;;;5067958;28;20191;-83
2024/03/13 05:36:23;;;;;;;2.53;1.80;;;8.30;99.90;;;;;;5064627;28;20789;-82
2024/03/13 05:38:51;;;;;;;1.05;0.95;;;8.30;99.90;;;;;;5062335;28;20225;-81
2024/03/13 05:41:19;;;;;;;1.55;1.45;;;8.30;99.90;;;;;;5062867;28;20194;-82
2024/03/13 05:43:46;;;;;;;0.93;0.65;;;8.30;99.90;;;;;;5045383;28;20203;-80
2024/03/13 05:46:13;;;;;;;1.25;1.15;;;8.30;99.90;;;;;;5060808;28;20564;-81
2024/03/13 05:48:41;;;;;;;0.50;0.50;;;8.30;99.90;;;;;;5059297;28;20226;-80
2024/03/13 05:51:08;;;;;;;0.50;0.50;;;8.30;99.90;;;;;;5060567;28;20195;-80
2024/03/13 05:53:35;;;;;;;3.42;1.92;;;8.30;99.90;;;;;;5060356;28;20280;-81
2024/03/13 05:56:03;;;;;;;2.10;1.65;;;8.40;99.90;;;;;;5046716;28;20581;-82
2024/03/13 05:58:30;;;;;;;2.20;2.10;;;8.40;99.90;;;;;;5057202;28;20211;-81
2024/03/13 06:00:56;;;;;;;0.68;0.68;;;8.40;99.90;;;;;;5059165;28;20194;-81
2024/03/13 06:03:25;;;;;;;0.55;0.55;;;8.40;99.90;;;;;;5049604;28;20198;-80
2024/03/13 06:05:52;;;;;;;5.15;2.72;;;8.40;99.90;;;;;;5057378;28;20222;-81
2024/03/13 06:08:20;;;;;;;1.25;1.00;;;8.40;99.90;;;;;;5063761;28;20730;-81
2024/03/13 06:10:48;;;;;;;0.40;0.40;;;8.40;99.90;;;;;;5062822;28;20201;-81
2024/03/13 06:13:15;;;;;;;2.88;1.20;;;8.30;99.90;;;;;;5061738;28;20195;-82
2024/03/13 06:15:42;;;;;;;0.50;0.43;;;8.40;99.90;;;;;;5062492;28;20203;-80
2024/03/13 06:18:09;;;;;;;2.50;2.30;;;8.40;99.90;;;;;;5059644;28;20294;-82
2024/03/13 06:20:36;;;;;;;0.40;0.40;;;8.50;99.90;;;;;;5058898;28;20199;-81
2024/03/13 06:23:03;;;;;;;0.60;0.60;;;8.50;99.90;;;;;;5060533;28;20195;-82
2024/03/13 06:25:30;;;;;;;1.42;1.33;;;8.50;99.90;;;;;;5061040;28;20210;-82
2024/03/13 06:29:55;;;;;;;1.55;1.45;;;8.50;99.90;;;;;;5057181;28;20229;-82
2024/03/13 06:30:43;;;;;;;0.80;0.80;;;8.50;99.90;;;;;;5060875;28;20687;-80
2024/03/13 06:33:11;;;;;;;0.50;0.50;;;8.60;99.90;;;;;;5050778;28;20191;-80
2024/03/13 06:35:41;;;;;;;0.40;0.40;;;8.60;99.90;;;;;;5052792;28;20437;-81
2024/03/13 06:38:11;;;;;;;2.80;1.55;;;8.60;99.90;;;;;;5057132;28;20629;-81
2024/03/13 06:40:42;;;;;;;1.67;1.33;;;8.70;99.90;;;;;;5042116;28;20199;-82
2024/03/13 06:43:09;;;;;;;1.88;1.27;;;8.70;99.90;;;;;;5062788;28;20248;-82
2024/03/13 06:45:36;;;;;;;0.98;0.88;;;8.70;99.90;;;;;;5060421;28;20727;-81
2024/03/13 06:48:04;;;;;;;3.33;1.67;;;8.80;99.90;;;;;;5051982;28;20576;-81
2024/03/13 06:50:32;;;;;;;1.48;1.10;;;8.80;99.90;;;;;;5059377;28;20202;-83
2024/03/13 06:52:59;;;;;;;0.40;0.40;;;8.90;99.90;;;;;;5056134;28;20274;-81
2024/03/13 06:55:27;;;;;;;1.52;1.42;;;8.90;99.90;;;;;;5032763;28;20508;-83
2024/03/13 06:57:54;;;;;;;0.68;0.60;;;8.90;99.90;;;;;;5062973;28;20732;-83
2024/03/13 07:00:21;;;;;;;2.43;2.20;;;9.00;99.90;;;;;;5062928;28;20198;-81
2024/03/13 07:02:50;;;;;;;2.08;1.08;;;9.10;99.90;;;;;;5063863;28;20476;-82
2024/03/13 07:05:18;;;;;;;0.40;0.40;;;9.10;99.90;;;;;;5065289;28;20226;-83
2024/03/13 07:07:46;;;;;;;0.40;0.40;;;9.10;99.90;;;;;;5064430;28;20223;-82
2024/03/13 07:10:20;;;;;;;0.40;0.40;;;9.10;99.90;;;;;;5056058;28;20198;-82
2024/03/13 07:12:48;;;;;;;1.15;1.15;;;9.20;99.90;;;;;;5067743;28;20278;-80
2024/03/13 07:15:14;;;;;;;1.75;1.65;;;9.20;99.90;;;;;;5064414;28;20190;-81
2024/03/13 07:17:42;;;;;;;0.50;0.50;;;9.20;99.90;;;;;;5041306;28;20260;-80
2024/03/13 07:20:10;;;;;;;0.80;0.80;;;9.20;99.90;;;;;;5059734;28;20804;-80
2024/03/13 07:22:38;;;;;;;0.60;0.50;;;9.30;99.90;;;;;;5058983;28;20440;-81
2024/03/13 07:25:09;;;;;;;2.20;2.10;;;9.30;99.90;;;;;;5059157;28;20908;-82
2024/03/13 07:27:39;;;;;;;2.20;2.10;;;9.30;99.90;;;;;;5062938;28;20887;-82
2024/03/13 07:30:08;;;;;;;0.55;0.55;;;9.30;99.90;;;;;;5058453;28;20869;-82
2024/03/13 07:32:36;;;;;;;3.13;1.53;;;9.30;99.90;;;;;;5058442;28;20195;-80
2024/03/13 07:35:03;;;;;;;2.00;1.90;;;9.40;99.90;;;;;;5057704;28;20816;-80
2024/03/13 07:37:31;;;;;;;0.40;0.30;;;9.40;99.90;;;;;;5040324;28;20489;-82
2024/03/13 07:39:58;;;;;;;1.08;0.80;;;9.50;99.90;;;;;;5055650;28;20495;-81
2024/03/13 07:42:25;;;;;;;0.80;0.80;;;9.50;99.90;;;;;;5053917;28;20194;-80
2024/03/13 07:44:54;;;;;;;1.70;1.60;;;9.50;99.90;;;;;;5053130;28;20890;-81
2024/03/13 07:47:21;;;;;;;1.52;1.35;;;9.50;99.90;;;;;;5053035;28;21043;-80
2024/03/13 07:49:48;;;;;;;2.70;2.13;;;9.60;99.90;;;;;;5059294;28;20245;-81
2024/03/13 07:52:15;;;;;;;3.15;2.25;;;9.60;99.90;;;;;;5062809;28;20429;-80
2024/03/13 07:54:42;;;;;;;0.60;0.60;;;9.60;99.90;;;;;;5057373;28;20197;-81
2024/03/13 07:57:11;;;;;;;2.45;1.20;;;9.60;99.90;;;;;;5042907;28;20461;-81
2024/03/13 07:59:40;;;;;;;2.40;1.70;;;9.60;99.90;;;;;;5058665;28;20576;-81
2024/03/13 08:02:07;;;;;;;0.80;0.50;;;9.70;99.90;;;;;;5057082;28;20466;-81
2024/03/13 08:04:36;;;;;;;1.03;0.93;;;9.70;99.90;;;;;;5054871;28;20860;-80
2024/03/13 08:07:03;;;;;;;0.90;0.85;;;9.80;99.90;;;;;;5056037;28;20523;-80
2024/03/13 08:09:31;;;;;;;0.50;0.50;;;9.80;99.90;;;;;;5056789;28;20194;-81
2024/03/13 08:11:58;;;;;;;1.67;1.58;;;9.80;99.90;;;;;;5057455;28;20441;-81
2024/03/13 08:14:25;;;;;;;3.10;1.60;;;9.80;99.90;;;;;;5060644;28;20202;-81
2024/03/13 08:16:54;;;;;;;2.47;2.37;;;9.80;99.90;;;;;;5059165;28;20439;-81
2024/03/13 08:19:22;;;;;;;0.40;0.40;;;9.80;99.90;;;;;;5059280;28;20478;-81
2024/03/13 08:21:49;;;;;;;6.03;2.50;;;9.90;99.90;;;;;;5057167;28;20194;-81
2024/03/13 08:24:18;;;;;;;1.93;1.73;;;9.90;99.90;;;;;;5056595;28;20966;-81
2024/03/13 08:26:46;;;;;;;2.33;2.10;;;9.90;99.90;;;;;;5058503;28;20897;-80
2024/03/13 08:29:15;;;;;;;1.10;1.07;;;9.90;99.90;;;;;;5056951;28;20451;-79
2024/03/13 08:31:42;;;;;;;5.20;3.13;;;9.90;99.90;;;;;;5060618;28;20436;-80
2024/03/13 08:34:09;;;;;;;1.02;1.02;;;10.00;99.90;;;;;;5060908;28;20206;-79
2024/03/13 08:36:36;;;;;;;0.40;0.30;;;10.00;99.90;;;;;;5060465;28;20217;-81
2024/03/13 08:39:03;;;;;;;1.57;1.43;;;10.00;99.90;;;;;;5059733;28;20456;-81
2024/03/13 08:41:31;;;;;;;0.50;0.50;;;10.10;99.90;;;;;;5059959;28;20447;-80
2024/03/13 08:43:58;;;;;;;2.80;2.60;;;10.10;99.90;;;;;;5078978;28;20424;-80
2024/03/13 08:46:24;;;;;;;6.73;4.60;;;10.20;99.90;;;;;;5084278;28;20539;-80
2024/03/13 08:48:54;;;;;;;7.90;2.63;;;10.10;99.90;;;;;;5083878;28;20447;-80
2024/03/13 08:51:21;;;;;;;1.47;1.37;;;10.10;99.90;;;;;;5084569;28;20492;-79
2024/03/13 08:53:48;;;;;;;0.90;0.90;;;10.10;99.90;;;;;;5083900;28;20475;-79
2024/03/13 08:56:16;;;;;;;2.50;2.30;;;10.10;99.90;;;;;;5083515;28;20496;-81
2024/03/13 08:58:44;;;;;;;1.57;0.87;;;10.20;99.90;;;;;;5082383;28;20483;-81
2024/03/13 09:01:11;;;;;;;3.67;3.33;;;10.20;99.90;;;;;;5076710;28;20437;-82
2024/03/13 09:03:39;;;;;;;1.60;1.37;;;10.20;99.90;;;;;;5064924;28;20440;-82
2024/03/13 09:06:08;;;;;;;1.50;1.40;;;10.20;99.90;;;;;;5063092;28;20529;-82
2024/03/13 09:08:35;;;;;;;2.70;2.60;;;10.30;99.90;;;;;;5064026;28;20476;-82
2024/03/13 09:11:02;;;;;;;2.37;1.17;;;10.30;99.90;;;;;;5066009;28;20641;-83
2024/03/13 09:13:28;;;;;;;4.60;2.97;;;10.40;99.90;;;;;;5064978;28;20627;-82
2024/03/13 09:16:01;;;;;;;1.00;1.00;;;10.30;99.90;;;;;;5065457;28;20435;-81
2024/03/13 09:18:28;;;;;;;1.43;1.33;;;10.40;99.90;;;;;;5063103;28;20453;-82
2024/03/13 09:20:58;;;;;;;1.40;1.40;;;10.40;99.90;;;;;;5060327;28;20935;-81
2024/03/13 09:23:25;;;;;;;1.90;1.80;;;10.40;99.90;;;;;;5060913;28;20432;-81
2024/03/13 09:25:52;;;;;;;6.70;4.40;;;10.40;99.90;;;;;;5061066;28;20476;-82
2024/03/13 09:28:20;;;;;;;9.57;4.80;;;10.40;99.90;;;;;;5061028;28;20462;-81
2024/03/13 09:30:49;;;;;;;3.70;2.07;;;10.40;99.90;;;;;;5044903;28;20974;-81
2024/03/13 09:33:16;;;;;;;5.60;4.37;;;10.40;99.90;;;;;;5061471;28;20428;-81
2024/03/13 09:35:43;;;;;;;7.00;4.33;;;10.50;99.90;;;;;;5060020;28;20424;-81
2024/03/13 09:38:12;;;;;;;2.83;2.03;;;10.50;99.90;;;;;;5060788;28;20453;-81
2024/03/13 09:40:39;;;;;;;4.10;3.77;;;10.50;99.90;;;;;;5060556;28;20471;-82
2024/03/13 09:43:06;;;;;;;5.93;2.13;;;10.50;99.90;;;;;;5060423;28;20923;-81
2024/03/13 09:45:33;;;;;;;8.80;2.10;;;10.50;99.90;;;;;;5060357;28;20476;-81
2024/03/13 09:47:59;;;;;;;6.37;3.63;;;10.50;99.90;;;;;;5061549;28;20464;-81
2024/03/13 09:50:26;;;;;;;4.70;4.40;;;10.50;99.90;;;;;;5059806;28;20437;-81
2024/03/13 09:52:54;;;;;;;5.07;4.63;;;10.50;99.90;;;;;;5059779;28;20436;-81
2024/03/13 09:55:21;;;;;;;0.70;0.70;;;10.50;99.90;;;;;;5058898;28;20877;-81
2024/03/13 09:57:49;;;;;;;0.60;0.60;;;10.60;99.90;;;;;;5060004;28;20457;-81
2024/03/13 10:00:18;;;;;;;4.87;4.47;;;10.70;99.90;;;;;;5059323;28;20436;-81
2024/03/13 10:02:45;;;;;;;2.07;1.33;;;10.70;99.90;;;;;;5059093;28;20437;-81
2024/03/13 10:05:12;;;;;;;1.97;1.80;;;10.70;99.90;;;;;;5058941;28;20440;-81
2024/03/13 10:07:39;;;;;;;3.83;3.53;;;10.80;99.90;;;;;;5058902;28;20870;-82
2024/03/13 10:10:10;;;;;;;3.20;2.60;;;10.80;99.90;;;;;;5059024;28;20443;-81
2024/03/13 10:12:36;;;;;;;10.30;1.80;;;10.80;99.90;;;;;;5059421;28;20441;-81
2024/03/13 10:15:06;;;;;;;1.53;1.53;;;10.70;99.90;;;;;;5058871;28;20441;-81
2024/03/13 10:17:34;;;;;;;1.23;0.70;;;10.80;99.90;;;;;;5042376;28;20464;-81
2024/03/13 10:20:05;;;;;;;2.60;2.13;;;10.80;99.90;;;;;;5042400;28;20441;-81
2024/03/13 10:22:31;;;;;;;5.77;5.37;;;10.90;99.90;;;;;;5059321;28;20443;-81
2024/03/13 10:24:59;;;;;;;1.37;1.37;;;10.90;99.90;;;;;;5060732;28;20436;-81
2024/03/13 10:27:28;;;;;;;0.83;0.83;;;10.90;99.90;;;;;;5060762;28;20476;-81
2024/03/13 10:29:56;;;;;;;3.07;2.87;;;10.90;99.90;;;;;;5060285;28;21004;-82
2024/03/13 10:32:24;;;;;;;10.33;5.10;;;10.90;99.90;;;;;;5059859;28;20448;-82
2024/03/13 10:34:52;;;;;;;7.50;4.73;;;10.90;99.90;;;;;;5043241;28;20543;-82
2024/03/13 10:37:18;;;;;;;6.13;5.30;;;11.00;99.90;;;;;;5059875;28;21057;-80
2024/03/13 10:39:45;;;;;;;2.23;1.43;;;11.00;99.90;;;;;;5059266;28;20440;-81
2024/03/13 10:42:12;;;;;;;9.47;6.73;;;11.00;99.90;;;;;;5059171;28;20436;-81
2024/03/13 10:44:40;;;;;;;1.60;1.50;;;11.00;99.90;;;;;;5059512;28;20507;-81
2024/03/13 10:47:08;;;;;;;1.90;1.80;;;11.00;99.90;;;;;;5059189;28;20878;-81
2024/03/13 10:49:35;;;;;;;1.03;1.03;;;11.00;99.90;;;;;;5060323;28;20822;-82
2024/03/13 10:52:07;;;;;;;2.73;2.63;;;11.10;99.90;;;;;;5060047;28;20812;-81
2024/03/13 10:54:36;;;;;;;0.60;0.60;;;11.30;99.90;;;;;;5059154;28;20436;-81
2024/03/13 10:57:04;;;;;;;5.53;3.40;;;11.50;99.90;;;;;;5059355;28;20431;-81
2024/03/13 10:59:34;;;;;;;2.40;1.07;;;11.80;99.90;;;;;;5058830;28;20433;-82
2024/03/13 11:02:03;;;;;;;1.90;1.27;;;11.90;99.90;;;;;;5060127;28;20444;-81
2024/03/13 11:04:30;;;;;;;4.77;4.30;;;12.00;99.90;;;;;;5058856;28;20500;-82
2024/03/13 11:06:58;;;;;;;3.70;1.90;;;12.20;99.90;;;;;;5059019;28;20472;-83
2024/03/13 11:09:24;;;;;;;0.40;0.40;;;12.20;99.90;;;;;;5058722;28;20433;-81
2024/03/13 11:11:52;;;;;;;6.33;3.43;;;12.10;99.90;;;;;;5059639;28;20437;-82
2024/03/13 11:14:20;;;;;;;3.07;2.80;;;12.10;99.90;;;;;;5058811;28;20432;-82
2024/03/13 11:16:48;;;;;;;0.40;0.40;;;12.00;99.90;;;;;;5057661;28;20502;-81
2024/03/13 11:19:15;;;;;;;11.80;6.30;;;12.00;99.90;;;;;;5058635;28;20456;-81
2024/03/13 11:21:44;;;;;;;23.47;21.13;;;12.00;99.90;;;;;;5057302;28;20939;-83
2024/03/13 11:24:11;;;;;;;5.50;4.20;;;11.90;99.90;;;;;;5058454;28;20437;-81
2024/03/13 11:26:38;;;;;;;6.00;1.80;;;11.90;99.90;;;;;;5057693;28;20998;-81
2024/03/13 11:29:08;;;;;;;3.30;1.50;;;12.00;99.90;;;;;;5056592;28;20464;-80
2024/03/13 11:31:38;;;;;;;5.57;4.00;;;12.00;99.90;;;;;;5057990;28;20953;-80
2024/03/13 11:34:05;;;;;;;11.23;3.70;;;12.10;99.90;;;;;;5040084;28;20448;-80
2024/03/13 11:36:33;;;;;;;1.87;1.77;;;12.00;99.90;;;;;;5058342;28;20460;-80
2024/03/13 11:39:00;;;;;;;1.37;0.93;;;12.10;99.90;;;;;;5058329;28;20464;-80
2024/03/13 11:41:27;;;;;;;2.70;2.50;;;12.00;99.90;;;;;;5057245;28;21021;-80
2024/03/13 11:43:57;;;;;;;0.50;0.50;;;12.00;99.90;;;;;;5057353;28;20436;-80
2024/03/13 11:46:33;;;;;;;6.80;3.77;;;12.00;99.90;;;;;;5057634;28;20850;-80
2024/03/13 11:49:02;;;;;;;3.23;2.93;;;12.00;99.90;;;;;;5057552;28;20827;-80
2024/03/13 11:51:31;;;;;;;3.47;2.83;;;12.00;99.90;;;;;;5056979;28;20432;-81
2024/03/13 11:54:05;;;;;;;1.57;1.53;;;11.90;99.90;;;;;;5055866;28;20463;-82
2024/03/13 11:56:33;;;;;;;4.50;2.27;;;11.90;99.90;;;;;;5040540;28;20535;-81
2024/03/13 11:59:01;;;;;;;4.80;3.30;;;11.90;99.90;;;;;;5056410;28;20457;-81
2024/03/13 12:01:28;;;;;;;5.27;4.87;;;11.80;99.90;;;;;;5058471;28;20445;-80
2024/03/13 12:03:57;;;;;;;0.50;0.40;;;11.80;99.90;;;;;;5058063;28;20439;-80
2024/03/13 12:06:36;;;;;;;3.30;3.10;;;11.80;99.90;;;;;;5057058;28;21048;-80
2024/03/13 12:09:09;;;;;;;1.90;1.43;;;11.80;99.90;;;;;;5057046;28;20480;-80
2024/03/13 12:11:37;;;;;;;4.43;3.97;;;11.80;99.90;;;;;;5057462;28;20941;-80
2024/03/13 12:14:05;;;;;;;5.50;4.17;;;11.80;99.90;;;;;;5057215;28;20444;-80
2024/03/13 12:16:32;;;;;;;5.03;1.90;;;11.80;99.90;;;;;;5056513;28;20858;-80
2024/03/13 12:18:59;;;;;;;3.50;3.23;;;11.80;99.90;;;;;;5055883;28;20456;-80
2024/03/13 12:21:30;;;;;;;1.33;1.33;;;11.90;99.90;;;;;;5056179;28;20490;-83
2024/03/13 12:23:57;;;;;;;4.57;3.30;;;11.80;99.90;;;;;;5041840;28;20443;-80
2024/03/13 12:26:25;;;;;;;3.17;2.10;;;11.80;99.90;;;;;;5059104;28;20994;-79
2024/03/13 12:28:54;;;;;;;0.50;0.50;;;11.80;99.90;;;;;;5056985;28;20994;-79
2024/03/13 12:31:20;;;;;;;2.40;2.30;;;11.80;99.90;;;;;;5056898;28;20490;-80
2024/03/13 12:33:53;;;;;;;1.00;1.00;;;11.80;99.90;;;;;;5057502;28;20757;-80
2024/03/13 12:36:21;;;;;;;1.90;1.80;;;11.80;99.90;;;;;;5042854;28;20443;-80
2024/03/13 12:38:50;;;;;;;3.80;3.30;;;11.90;99.90;;;;;;5057196;28;20488;-79
2024/03/13 12:41:17;;;;;;;0.50;0.40;;;11.80;99.90;;;;;;5058150;28;20947;-81
2024/03/13 12:43:44;;;;;;;0.50;0.40;;;11.70;99.90;;;;;;5056737;28;20432;-80
2024/03/13 12:46:13;;;;;;;1.33;1.20;;;11.70;99.90;;;;;;5056397;28;20468;-81
2024/03/13 12:48:40;;;;;;;5.03;3.77;;;11.60;99.90;;;;;;5051875;28;20473;-80
2024/03/13 12:51:08;;;;;;;2.30;0.70;;;11.60;99.90;;;;;;5066094;28;20442;-81
2024/03/13 12:53:36;;;;;;;1.17;0.50;;;11.50;99.90;;;;;;4369716;28;10022587;-80
2024/03/13 12:56:08;;;;;;;3.80;1.83;;;11.50;99.90;;;;;;5054137;28;20554;-81
2024/03/13 12:58:34;;;;;;;1.00;1.00;;;11.40;99.90;;;;;;5056787;28;20505;-82
2024/03/13 13:01:02;;;;;;;3.70;2.53;;;11.40;99.90;;;;;;5059953;28;20429;-83
2024/03/13 13:03:31;;;;;;;4.20;3.20;;;11.50;99.90;;;;;;5060561;28;20449;-82
2024/03/13 13:05:58;;;;;;;0.40;0.40;;;11.50;99.90;;;;;;5059538;28;20440;-82
2024/03/13 13:08:26;;;;;;;0.77;0.77;;;11.50;99.90;;;;;;5042287;28;20464;-82
2024/03/13 13:10:55;;;;;;;0.40;0.30;;;11.50;99.90;;;;;;5059330;28;20444;-83
2024/03/13 13:13:25;;;;;;;0.40;0.40;;;11.50;99.90;;;;;;5058797;28;20436;-83